Time;durP1;ratioP1;P1;durP2;ratioP2;P2;SDS_P1;SDS_P2;PMS_P1;PMS_P2;Temp;Humidity;BMP_temperature;BMP_pressure;BME280_temperature;BME280_humidity;BME280_pressure;Samples;Min_cycle;Max_cycle;Signal;HPM_P1;HPM_P2
2022/02/27 00:00:09;;;;;;;34.25;13.70;;;;;;;;;;4968787;28;20042;-72
2022/02/27 00:02:35;;;;;;;26.70;12.52;;;;;;;;;;4987600;28;20058;-72
2022/02/27 00:05:02;;;;;;;31.75;12.13;;;;;;;;;;4979626;28;20129;-72
2022/02/27 00:07:28;;;;;;;29.50;12.77;;;;;;;;;;4973700;28;20165;-72
2022/02/27 00:09:55;;;;;;;34.70;12.02;;;;;;;;;;4980566;28;20057;-72
2022/02/27 00:12:21;;;;;;;27.90;11.75;;;;;;;;;;4964736;28;20596;-72
2022/02/27 00:14:47;;;;;;;24.40;11.55;;;;;;;;;;4975982;28;20058;-72
2022/02/27 00:17:13;;;;;;;27.60;11.02;;;;;;;;;;4971674;28;20054;-72
2022/02/27 00:19:40;;;;;;;25.35;11.38;;;;;;;;;;4978704;28;20046;-72
2022/02/27 00:22:06;;;;;;;28.52;11.27;;;;;;;;;;4979082;28;21533;-72
2022/02/27 00:24:32;;;;;;;32.92;11.27;;;;;;;;;;4984973;28;20054;-73
2022/02/27 00:26:58;;;;;;;24.92;10.88;;;;;;;;;;4973261;28;20050;-73
2022/02/27 00:29:25;;;;;;;25.10;10.77;;;;;;;;;;4971318;28;20511;-72
2022/02/27 00:31:51;;;;;;;23.20;10.05;;;;;;;;;;4979220;28;20427;-72
2022/02/27 00:34:17;;;;;;;27.02;10.10;;;;;;;;;;4972843;28;20101;-72
2022/02/27 00:36:46;;;;;;;18.00;9.73;;;;;;;;;;4975112;28;20051;-73
2022/02/27 00:39:12;;;;;;;21.67;9.95;;;;;;;;;;4971025;28;20492;-73
2022/02/27 00:41:40;;;;;;;26.05;10.27;;;;;;;;;;4966504;28;20050;-74
2022/02/27 00:44:06;;;;;;;25.73;10.10;;;;;;;;;;4978914;28;20053;-74
2022/02/27 00:46:32;;;;;;;24.80;8.75;;;;;;;;;;4972935;28;20042;-73
2022/02/27 00:48:58;;;;;;;20.13;7.93;;;;;;;;;;4978741;28;20061;-72
2022/02/27 00:51:25;;;;;;;24.08;8.35;;;;;;;;;;4992580;28;20061;-73
2022/02/27 00:53:52;;;;;;;30.20;13.43;;;;;;;;;;4972029;28;20065;-72
2022/02/27 00:56:18;;;;;;;28.33;10.18;;;;;;;;;;4980423;28;20069;-73
2022/02/27 00:58:50;;;;;;;25.73;9.38;;;;;;;;;;4970979;28;20050;-72
2022/02/27 01:01:18;;;;;;;17.88;7.65;;;;;;;;;;4977916;28;20050;-72
2022/02/27 01:03:45;;;;;;;21.63;8.38;;;;;;;;;;4979238;28;20128;-72
2022/02/27 01:06:12;;;;;;;15.88;6.45;;;;;;;;;;4974414;28;20764;-72
2022/02/27 01:08:38;;;;;;;20.65;7.88;;;;;;;;;;4990677;28;20058;-72
2022/02/27 01:11:05;;;;;;;15.93;7.35;;;;;;;;;;4971293;28;20355;-72
2022/02/27 01:13:31;;;;;;;19.95;7.68;;;;;;;;;;4980705;28;20054;-73
2022/02/27 01:15:57;;;;;;;18.10;7.13;;;;;;;;;;4974778;28;20463;-73
2022/02/27 01:18:24;;;;;;;21.52;7.70;;;;;;;;;;4990213;28;20046;-72
2022/02/27 01:20:50;;;;;;;16.13;6.22;;;;;;;;;;4966487;28;20475;-72
2022/02/27 01:23:16;;;;;;;23.10;6.88;;;;;;;;;;4974557;28;20042;-73
2022/02/27 01:25:43;;;;;;;19.83;7.07;;;;;;;;;;4979716;28;20571;-73
2022/02/27 01:28:09;;;;;;;13.05;6.22;;;;;;;;;;4971229;28;20491;-73
2022/02/27 01:30:35;;;;;;;21.52;6.78;;;;;;;;;;4969903;28;20055;-73
2022/02/27 01:33:01;;;;;;;16.65;6.55;;;;;;;;;;4964692;28;20392;-73
2022/02/27 01:35:28;;;;;;;13.88;6.40;;;;;;;;;;4974260;28;20268;-73
2022/02/27 01:37:54;;;;;;;12.80;6.32;;;;;;;;;;4969378;28;20050;-72
2022/02/27 01:40:20;;;;;;;17.55;6.68;;;;;;;;;;4986347;28;20058;-72
2022/02/27 01:42:47;;;;;;;15.20;6.35;;;;;;;;;;4980877;28;20324;-72
2022/02/27 01:45:13;;;;;;;16.35;6.47;;;;;;;;;;4965741;28;20050;-74
2022/02/27 01:47:39;;;;;;;20.52;6.35;;;;;;;;;;4974074;28;20681;-74
2022/02/27 01:50:07;;;;;;;16.42;7.07;;;;;;;;;;4954795;28;20042;-74
2022/02/27 01:52:33;;;;;;;16.40;6.72;;;;;;;;;;4976887;28;20053;-74
2022/02/27 01:55:00;;;;;;;19.88;6.35;;;;;;;;;;4978391;28;20050;-74
2022/02/27 01:57:26;;;;;;;15.63;6.85;;;;;;;;;;4981456;28;20073;-73
2022/02/27 01:59:53;;;;;;;17.92;7.38;;;;;;;;;;4976689;28;20043;-74
2022/02/27 02:02:19;;;;;;;20.67;6.85;;;;;;;;;;4968200;28;20051;-74
2022/02/27 02:04:45;;;;;;;15.27;6.57;;;;;;;;;;4975360;28;20351;-73
2022/02/27 02:07:12;;;;;;;17.90;6.53;;;;;;;;;;4972182;28;20403;-74
2022/02/27 02:09:38;;;;;;;15.05;5.70;;;;;;;;;;4992725;28;20559;-72
2022/02/27 02:12:06;;;;;;;17.08;6.65;;;;;;;;;;4981915;28;20261;-71
2022/02/27 02:14:32;;;;;;;18.30;6.50;;;;;;;;;;4975689;28;20466;-71
2022/02/27 02:16:59;;;;;;;21.17;6.20;;;;;;;;;;4975223;28;20054;-73
2022/02/27 02:19:26;;;;;;;14.57;6.15;;;;;;;;;;4983338;28;20061;-72
2022/02/27 02:21:54;;;;;;;13.98;6.10;;;;;;;;;;4981577;28;20061;-72
2022/02/27 02:24:21;;;;;;;16.73;6.78;;;;;;;;;;4989632;28;20095;-73
2022/02/27 02:26:49;;;;;;;13.13;6.07;;;;;;;;;;4975426;28;20050;-73
2022/02/27 02:29:16;;;;;;;15.65;6.75;;;;;;;;;;4978375;28;20048;-73
2022/02/27 02:31:44;;;;;;;18.02;7.07;;;;;;;;;;4964166;28;20467;-73
2022/02/27 02:34:12;;;;;;;15.85;6.40;;;;;;;;;;4981218;28;20046;-73
2022/02/27 02:36:39;;;;;;;15.90;6.85;;;;;;;;;;4974085;28;20046;-74
2022/02/27 02:39:07;;;;;;;31.95;12.40;;;;;;;;;;4974362;28;20039;-73
2022/02/27 02:41:33;;;;;;;28.43;12.20;;;;;;;;;;4981967;28;20044;-73
2022/02/27 02:43:59;;;;;;;22.83;9.60;;;;;;;;;;4985813;28;20042;-72
2022/02/27 02:46:26;;;;;;;24.52;9.02;;;;;;;;;;4973608;28;20621;-71
2022/02/27 02:48:55;;;;;;;23.85;7.75;;;;;;;;;;4976807;28;20050;-71
2022/02/27 02:51:21;;;;;;;15.32;6.50;;;;;;;;;;4984158;28;20058;-71
2022/02/27 02:53:47;;;;;;;20.85;7.03;;;;;;;;;;4977963;28;20054;-71
2022/02/27 02:56:13;;;;;;;20.15;7.43;;;;;;;;;;4983648;28;20053;-71
2022/02/27 02:58:40;;;;;;;21.38;6.90;;;;;;;;;;4981013;28;20050;-72
2022/02/27 03:01:08;;;;;;;27.15;7.22;;;;;;;;;;4972601;28;20054;-71
2022/02/27 03:03:35;;;;;;;20.65;6.80;;;;;;;;;;4982853;28;20046;-71
2022/02/27 03:06:03;;;;;;;24.45;7.53;;;;;;;;;;4974672;28;20396;-72
2022/02/27 03:08:29;;;;;;;20.30;8.43;;;;;;;;;;4983909;28;20054;-71
2022/02/27 03:10:56;;;;;;;25.65;7.45;;;;;;;;;;4975894;28;20050;-71
2022/02/27 03:13:22;;;;;;;33.10;11.85;;;;;;;;;;4972534;28;20527;-71
2022/02/27 03:15:48;;;;;;;27.27;9.35;;;;;;;;;;4983968;28;20054;-71
2022/02/27 03:18:15;;;;;;;21.83;8.93;;;;;;;;;;4975435;28;20054;-71
2022/02/27 03:20:41;;;;;;;20.63;7.32;;;;;;;;;;4985023;28;20050;-71
2022/02/27 03:23:08;;;;;;;21.52;7.60;;;;;;;;;;4976293;28;20424;-71
2022/02/27 03:25:34;;;;;;;18.33;7.32;;;;;;;;;;4974502;28;20051;-72
2022/02/27 03:28:00;;;;;;;17.27;6.13;;;;;;;;;;4975157;28;20413;-72
2022/02/27 03:30:27;;;;;;;19.02;6.03;;;;;;;;;;4975478;28;20061;-72
2022/02/27 03:32:53;;;;;;;16.60;6.10;;;;;;;;;;4982536;28;20065;-71
2022/02/27 03:35:20;;;;;;;19.92;6.85;;;;;;;;;;4979991;28;20427;-71
2022/02/27 03:37:50;;;;;;;16.48;5.65;;;;;;;;;;4977842;28;20042;-71
2022/02/27 03:40:19;;;;;;;16.52;6.10;;;;;;;;;;4969996;28;20354;-71
2022/02/27 03:42:46;;;;;;;18.85;5.97;;;;;;;;;;4980552;28;20054;-71
2022/02/27 03:45:13;;;;;;;18.70;6.63;;;;;;;;;;4984253;28;20046;-72
2022/02/27 03:47:43;;;;;;;18.13;6.57;;;;;;;;;;4975541;28;20062;-72
2022/02/27 03:50:11;;;;;;;16.38;6.45;;;;;;;;;;4980388;28;20054;-72
2022/02/27 03:52:37;;;;;;;18.67;7.18;;;;;;;;;;4963996;28;20051;-73
2022/02/27 03:55:07;;;;;;;19.15;6.63;;;;;;;;;;4978092;28;20046;-72
2022/02/27 03:57:34;;;;;;;18.90;6.18;;;;;;;;;;4990798;28;20061;-72
2022/02/27 04:00:00;;;;;;;26.42;6.97;;;;;;;;;;4984334;28;20046;-72
2022/02/27 04:02:27;;;;;;;18.67;6.72;;;;;;;;;;4984888;28;20491;-72
2022/02/27 04:04:53;;;;;;;18.45;6.45;;;;;;;;;;4976186;28;20097;-72
2022/02/27 04:07:19;;;;;;;20.73;6.90;;;;;;;;;;4978400;28;20046;-72
2022/02/27 04:09:46;;;;;;;17.00;6.72;;;;;;;;;;4972405;28;20046;-72
2022/02/27 04:12:13;;;;;;;18.75;7.28;;;;;;;;;;4975491;28;20452;-72
2022/02/27 04:14:39;;;;;;;20.10;6.75;;;;;;;;;;4974744;28;20398;-72
2022/02/27 04:17:05;;;;;;;17.30;6.57;;;;;;;;;;4983741;28;20060;-72
2022/02/27 04:19:32;;;;;;;21.25;6.00;;;;;;;;;;4966389;28;20051;-72
2022/02/27 04:21:58;;;;;;;21.63;7.22;;;;;;;;;;4969170;28;20053;-72
2022/02/27 04:24:24;;;;;;;18.67;7.40;;;;;;;;;;4982322;28;20048;-72
2022/02/27 04:26:51;;;;;;;18.65;5.60;;;;;;;;;;4975358;28;20483;-72
2022/02/27 04:29:18;;;;;;;15.90;6.32;;;;;;;;;;4987433;28;20054;-72
2022/02/27 04:31:44;;;;;;;16.05;6.80;;;;;;;;;;4975974;28;20062;-71
2022/02/27 04:34:11;;;;;;;17.85;6.35;;;;;;;;;;4976766;28;20423;-72
2022/02/27 04:36:37;;;;;;;14.85;5.82;;;;;;;;;;4978320;28;20072;-72
2022/02/27 04:39:03;;;;;;;21.75;6.60;;;;;;;;;;4973306;28;20479;-72
2022/02/27 04:41:30;;;;;;;18.00;5.78;;;;;;;;;;4983690;28;20053;-71
2022/02/27 04:43:56;;;;;;;16.35;6.22;;;;;;;;;;4973140;28;20665;-73
2022/02/27 04:46:23;;;;;;;14.88;6.05;;;;;;;;;;4988815;28;20054;-73
2022/02/27 04:48:49;;;;;;;13.68;5.40;;;;;;;;;;4972910;28;20054;-73
2022/02/27 04:51:15;;;;;;;16.00;6.30;;;;;;;;;;4971640;28;20054;-72
2022/02/27 04:53:45;;;;;;;18.95;5.75;;;;;;;;;;4979986;28;20058;-72
2022/02/27 04:56:11;;;;;;;15.30;5.40;;;;;;;;;;4972981;28;20054;-72
2022/02/27 04:58:37;;;;;;;9.02;4.82;;;;;;;;;;4981242;28;20046;-72
2022/02/27 05:01:04;;;;;;;17.90;5.68;;;;;;;;;;4972566;28;20596;-73
2022/02/27 05:03:31;;;;;;;14.25;5.38;;;;;;;;;;4975621;28;20070;-73
2022/02/27 05:05:57;;;;;;;16.50;5.90;;;;;;;;;;4978452;28;20073;-72
2022/02/27 05:08:23;;;;;;;17.45;5.22;;;;;;;;;;4970713;28;20050;-72
2022/02/27 05:10:49;;;;;;;18.40;5.93;;;;;;;;;;4981619;28;20057;-73
2022/02/27 05:13:16;;;;;;;13.90;5.93;;;;;;;;;;4974804;28;20052;-73
2022/02/27 05:15:42;;;;;;;14.45;5.75;;;;;;;;;;4978255;28;20050;-73
2022/02/27 05:18:08;;;;;;;12.43;5.90;;;;;;;;;;4973254;28;20492;-73
2022/02/27 05:20:34;;;;;;;17.98;6.57;;;;;;;;;;4977880;28;20055;-73
2022/02/27 05:23:01;;;;;;;14.63;5.65;;;;;;;;;;4982391;28;20526;-72
2022/02/27 05:25:27;;;;;;;14.55;5.90;;;;;;;;;;4983968;28;20046;-73
2022/02/27 05:27:54;;;;;;;9.88;5.13;;;;;;;;;;4981926;28;20168;-73
2022/02/27 05:30:21;;;;;;;15.68;5.57;;;;;;;;;;4970309;28;20050;-73
2022/02/27 05:32:48;;;;;;;12.73;5.53;;;;;;;;;;4980742;28;20065;-73
2022/02/27 05:35:14;;;;;;;15.13;5.68;;;;;;;;;;4990403;28;20062;-73
2022/02/27 05:37:41;;;;;;;11.75;5.93;;;;;;;;;;4977365;28;20069;-73
2022/02/27 05:40:08;;;;;;;12.50;5.88;;;;;;;;;;4985867;28;20043;-73
2022/02/27 05:42:34;;;;;;;12.18;5.60;;;;;;;;;;4980123;28;20041;-73
2022/02/27 05:45:01;;;;;;;14.38;5.47;;;;;;;;;;4991716;28;20046;-73
2022/02/27 05:47:27;;;;;;;16.95;5.72;;;;;;;;;;4977761;28;20069;-73
2022/02/27 05:49:54;;;;;;;16.55;6.05;;;;;;;;;;4980399;28;20523;-73
2022/02/27 05:52:20;;;;;;;12.18;6.15;;;;;;;;;;4982079;28;20062;-73
2022/02/27 05:54:47;;;;;;;13.48;5.78;;;;;;;;;;4978101;28;20054;-73
2022/02/27 05:57:13;;;;;;;11.80;5.57;;;;;;;;;;4998520;28;20058;-73
2022/02/27 05:59:39;;;;;;;15.43;6.32;;;;;;;;;;4976848;28;20061;-73
2022/02/27 06:02:06;;;;;;;16.20;5.10;;;;;;;;;;4975646;28;20061;-72
2022/02/27 06:04:32;;;;;;;12.10;5.50;;;;;;;;;;4985346;28;20604;-73
2022/02/27 06:07:00;;;;;;;18.50;5.68;;;;;;;;;;4992976;28;20057;-73
2022/02/27 06:09:26;;;;;;;12.20;5.32;;;;;;;;;;4984884;28;20519;-73
2022/02/27 06:11:55;;;;;;;21.20;6.10;;;;;;;;;;4976793;28;20051;-73
2022/02/27 06:14:21;;;;;;;14.45;6.28;;;;;;;;;;4985645;28;20042;-73
2022/02/27 06:16:47;;;;;;;13.50;5.28;;;;;;;;;;4977420;28;20054;-73
2022/02/27 06:19:13;;;;;;;14.25;5.63;;;;;;;;;;4986244;28;20054;-73
2022/02/27 06:21:40;;;;;;;16.08;5.72;;;;;;;;;;4988278;28;20047;-73
2022/02/27 06:24:06;;;;;;;14.00;5.63;;;;;;;;;;4965360;28;20047;-73
2022/02/27 06:26:34;;;;;;;15.13;6.10;;;;;;;;;;4988215;28;20060;-73
2022/02/27 06:29:02;;;;;;;11.75;5.78;;;;;;;;;;4981627;28;20046;-73
2022/02/27 06:31:29;;;;;;;14.50;5.90;;;;;;;;;;4981719;28;20816;-73
2022/02/27 06:33:56;;;;;;;12.98;5.45;;;;;;;;;;4966619;28;20074;-73
2022/02/27 06:36:22;;;;;;;12.35;4.93;;;;;;;;;;4970011;28;20672;-73
2022/02/27 06:38:49;;;;;;;12.82;5.85;;;;;;;;;;4976702;28;20050;-72
2022/02/27 06:41:15;;;;;;;14.98;6.18;;;;;;;;;;4979757;28;20050;-73
2022/02/27 06:43:42;;;;;;;15.50;5.82;;;;;;;;;;4986563;28;20039;-73
2022/02/27 06:46:09;;;;;;;15.98;5.65;;;;;;;;;;4993972;28;20093;-73
2022/02/27 06:48:36;;;;;;;13.93;5.38;;;;;;;;;;4991910;28;20096;-72
2022/02/27 06:51:02;;;;;;;13.80;4.53;;;;;;;;;;4983229;28;20398;-72
2022/02/27 06:53:28;;;;;;;13.68;5.75;;;;;;;;;;4981494;28;20419;-72
2022/02/27 06:55:54;;;;;;;16.33;5.07;;;;;;;;;;4974949;28;20113;-72
2022/02/27 06:58:21;;;;;;;15.68;5.15;;;;;;;;;;4974038;28;20050;-72
2022/02/27 07:00:47;;;;;;;14.82;5.13;;;;;;;;;;4971394;28;20054;-73
2022/02/27 07:03:14;;;;;;;14.90;4.95;;;;;;;;;;4972002;28;20405;-73
2022/02/27 07:05:40;;;;;;;13.93;6.00;;;;;;;;;;4969646;28;20536;-72
2022/02/27 07:08:07;;;;;;;11.23;5.88;;;;;;;;;;4980272;28;20619;-73
2022/02/27 07:10:33;;;;;;;12.43;5.43;;;;;;;;;;4984539;28;20070;-72
2022/02/27 07:12:59;;;;;;;12.35;5.68;;;;;;;;;;4979380;28;20047;-73
2022/02/27 07:15:25;;;;;;;13.02;4.97;;;;;;;;;;4974711;28;20419;-73
2022/02/27 07:17:52;;;;;;;18.52;5.22;;;;;;;;;;4977220;28;20675;-73
2022/02/27 07:20:19;;;;;;;14.98;5.07;;;;;;;;;;4975914;28;20062;-73
2022/02/27 07:22:45;;;;;;;10.85;5.03;;;;;;;;;;4982763;28;20057;-73
2022/02/27 07:25:11;;;;;;;7.43;3.85;;;;;;;;;;4974868;28;20050;-73
2022/02/27 07:27:38;;;;;;;14.32;5.00;;;;;;;;;;4982528;28;20142;-73
2022/02/27 07:30:04;;;;;;;11.13;4.88;;;;;;;;;;4981809;28;20050;-72
2022/02/27 07:32:31;;;;;;;13.70;5.45;;;;;;;;;;4976645;28;20042;-72
2022/02/27 07:34:58;;;;;;;15.48;5.20;;;;;;;;;;4984911;28;20756;-73
2022/02/27 07:37:24;;;;;;;15.82;5.80;;;;;;;;;;4972994;28;20057;-73
2022/02/27 07:39:51;;;;;;;15.05;5.75;;;;;;;;;;4974272;28;20516;-73
2022/02/27 07:42:17;;;;;;;16.10;6.32;;;;;;;;;;4969564;28;20089;-73
2022/02/27 07:44:44;;;;;;;14.68;5.25;;;;;;;;;;4977402;28;20051;-72
2022/02/27 07:47:11;;;;;;;18.48;5.63;;;;;;;;;;4975059;28;20404;-73
2022/02/27 07:49:37;;;;;;;17.52;6.28;;;;;;;;;;4964377;28;20058;-72
2022/02/27 07:52:04;;;;;;;14.40;5.47;;;;;;;;;;4977871;28;20046;-73
2022/02/27 07:54:30;;;;;;;15.35;5.72;;;;;;;;;;4962230;28;20050;-72
2022/02/27 07:56:56;;;;;;;10.02;4.75;;;;;;;;;;4976607;28;20054;-73
2022/02/27 07:59:23;;;;;;;14.18;5.13;;;;;;;;;;4973488;28;20059;-73
2022/02/27 08:01:49;;;;;;;16.63;5.57;;;;;;;;;;4983240;28;20064;-73
2022/02/27 08:04:16;;;;;;;12.25;4.55;;;;;;;;;;4983978;28;20140;-73
2022/02/27 08:06:42;;;;;;;10.90;4.53;;;;;;;;;;4976971;28;20187;-73
2022/02/27 08:09:10;;;;;;;12.07;5.18;;;;;;;;;;4979351;28;20046;-73
2022/02/27 08:11:37;;;;;;;11.77;4.90;;;;;;;;;;4969646;28;20377;-73
2022/02/27 08:14:08;;;;;;;12.80;4.95;;;;;;;;;;4980298;28;20101;-73
2022/02/27 08:16:35;;;;;;;13.45;5.32;;;;;;;;;;4975570;28;20050;-73
2022/02/27 08:19:01;;;;;;;12.05;4.22;;;;;;;;;;4982517;28;20060;-72
2022/02/27 08:21:27;;;;;;;10.45;4.78;;;;;;;;;;4983148;28;20073;-72
2022/02/27 08:23:54;;;;;;;11.75;4.80;;;;;;;;;;4972118;28;20050;-72
2022/02/27 08:26:20;;;;;;;13.90;5.13;;;;;;;;;;4972255;28;20065;-72
2022/02/27 08:28:46;;;;;;;9.40;4.63;;;;;;;;;;4981182;28;20464;-72
2022/02/27 08:31:13;;;;;;;14.15;4.60;;;;;;;;;;4981697;28;20054;-72
2022/02/27 08:33:39;;;;;;;13.43;3.88;;;;;;;;;;4975927;28;20064;-72
2022/02/27 08:36:06;;;;;;;12.80;5.10;;;;;;;;;;4980388;28;20094;-72
2022/02/27 08:38:32;;;;;;;14.85;4.60;;;;;;;;;;4975635;28;20057;-72
2022/02/27 08:40:58;;;;;;;14.30;5.25;;;;;;;;;;4976809;28;20064;-72
2022/02/27 08:43:25;;;;;;;13.43;5.10;;;;;;;;;;4981153;28;20053;-72
2022/02/27 08:45:51;;;;;;;12.05;5.00;;;;;;;;;;4974371;28;20096;-72
2022/02/27 08:48:17;;;;;;;11.73;4.97;;;;;;;;;;4981476;28;20065;-72
2022/02/27 08:50:44;;;;;;;15.45;5.10;;;;;;;;;;4972996;28;20054;-72
2022/02/27 08:53:10;;;;;;;10.70;5.00;;;;;;;;;;4973654;28;20058;-72
2022/02/27 08:55:36;;;;;;;11.10;4.60;;;;;;;;;;4985481;28;20046;-72
2022/02/27 08:58:03;;;;;;;9.82;4.80;;;;;;;;;;4974798;28;20616;-72
2022/02/27 09:00:29;;;;;;;9.65;5.07;;;;;;;;;;4982331;28;20046;-72
2022/02/27 09:02:56;;;;;;;11.35;4.78;;;;;;;;;;4973378;28;20046;-72
2022/02/27 09:05:22;;;;;;;10.25;4.35;;;;;;;;;;4976052;28;20057;-72
2022/02/27 09:07:48;;;;;;;8.25;4.25;;;;;;;;;;4976804;28;20056;-72
2022/02/27 09:10:15;;;;;;;13.15;4.60;;;;;;;;;;4975930;28;20052;-72
2022/02/27 09:12:42;;;;;;;11.80;4.90;;;;;;;;;;4981004;28;20058;-72
2022/02/27 09:15:09;;;;;;;10.70;4.10;;;;;;;;;;4975136;28;20055;-72
2022/02/27 09:17:35;;;;;;;12.70;4.38;;;;;;;;;;4981221;28;20054;-72
2022/02/27 09:20:02;;;;;;;12.05;4.45;;;;;;;;;;4969290;28;20050;-72
2022/02/27 09:22:28;;;;;;;9.80;4.00;;;;;;;;;;4978410;28;20048;-72
2022/02/27 09:24:55;;;;;;;12.98;4.65;;;;;;;;;;4983210;28;20053;-72
2022/02/27 09:27:21;;;;;;;9.77;4.35;;;;;;;;;;4975248;28;20053;-72
2022/02/27 09:29:47;;;;;;;9.52;4.32;;;;;;;;;;4980751;28;20058;-72
2022/02/27 09:32:14;;;;;;;12.20;4.53;;;;;;;;;;4971762;28;20688;-72
2022/02/27 09:34:40;;;;;;;10.57;3.95;;;;;;;;;;4968790;28;20065;-72
2022/02/27 09:37:07;;;;;;;8.93;3.70;;;;;;;;;;4968906;28;20046;-72
2022/02/27 09:39:33;;;;;;;10.27;3.72;;;;;;;;;;4972661;28;20053;-72
2022/02/27 09:42:00;;;;;;;8.95;3.72;;;;;;;;;;4988572;28;20046;-72
2022/02/27 09:44:27;;;;;;;14.18;4.07;;;;;;;;;;4973663;28;20054;-72
2022/02/27 09:47:00;;;;;;;6.85;3.28;;;;;;;;;;4974209;28;20048;-72
2022/02/27 09:49:27;;;;;;;7.20;3.83;;;;;;;;;;4969632;28;20093;-72
2022/02/27 09:51:55;;;;;;;12.43;3.70;;;;;;;;;;4980688;28;20050;-72
2022/02/27 09:54:22;;;;;;;14.77;3.80;;;;;;;;;;4965783;28;20054;-73
2022/02/27 09:56:49;;;;;;;11.00;4.00;;;;;;;;;;4996018;28;20054;-70
2022/02/27 09:59:16;;;;;;;8.23;3.63;;;;;;;;;;4980284;28;20061;-71
2022/02/27 10:02:01;;;;;;;10.60;3.92;;;;;;;;;;4966699;28;20054;-71
2022/02/27 10:04:33;;;;;;;8.57;4.07;;;;;;;;;;4978356;28;20874;-71
2022/02/27 10:07:00;;;;;;;11.05;4.10;;;;;;;;;;4972662;28;20065;-71
2022/02/27 10:09:26;;;;;;;9.38;3.60;;;;;;;;;;4979391;28;20427;-72
2022/02/27 10:12:10;;;;;;;8.40;3.75;;;;;;;;;;4972981;28;20050;-72
2022/02/27 10:14:36;;;;;;;12.43;4.10;;;;;;;;;;4973330;28;20057;-72
2022/02/27 10:17:05;;;;;;;9.77;4.10;;;;;;;;;;4967881;28;20054;-72
2022/02/27 10:19:36;;;;;;;13.00;4.45;;;;;;;;;;4979659;28;20054;-72
2022/02/27 10:22:03;;;;;;;11.60;4.18;;;;;;;;;;4971389;28;20053;-73
2022/02/27 10:24:33;;;;;;;9.98;3.70;;;;;;;;;;4971740;28;20050;-72
2022/02/27 10:26:59;;;;;;;7.75;4.13;;;;;;;;;;4981336;28;20125;-72
2022/02/27 10:29:26;;;;;;;12.00;4.22;;;;;;;;;;4973503;28;20042;-72
2022/02/27 10:31:56;;;;;;;11.27;4.00;;;;;;;;;;4980217;28;20057;-72
2022/02/27 10:34:28;;;;;;;11.23;4.05;;;;;;;;;;4976229;28;20046;-72
2022/02/27 10:36:54;;;;;;;7.80;3.90;;;;;;;;;;4982124;28;20522;-72
2022/02/27 10:39:28;;;;;;;9.00;3.85;;;;;;;;;;4982051;28;20697;-71
2022/02/27 10:41:54;;;;;;;8.20;3.83;;;;;;;;;;4971175;28;20060;-71
2022/02/27 10:44:21;;;;;;;9.23;4.05;;;;;;;;;;4976679;28;20073;-71
2022/02/27 10:46:48;;;;;;;9.38;4.20;;;;;;;;;;4976789;28;20062;-71
2022/02/27 10:49:29;;;;;;;8.85;4.20;;;;;;;;;;4981787;28;20419;-71
2022/02/27 10:52:08;;;;;;;9.55;4.85;;;;;;;;;;4974231;28;20057;-71
2022/02/27 10:54:34;;;;;;;;;;;;;;;;;;4981378;28;20050;-71
2022/02/27 10:57:01;;;;;;;10.38;4.13;;;;;;;;;;4968319;28;19925;-71
2022/02/27 10:59:27;;;;;;;10.07;4.47;;;;;;;;;;4982206;28;20510;-71
2022/02/27 11:01:53;;;;;;;11.00;3.75;;;;;;;;;;4981144;28;20045;-71
2022/02/27 11:04:21;;;;;;;12.40;4.28;;;;;;;;;;4973869;28;20477;-71
2022/02/27 11:06:48;;;;;;;9.75;4.47;;;;;;;;;;4981517;28;20550;-71
2022/02/27 11:09:15;;;;;;;9.95;4.22;;;;;;;;;;4967889;28;20053;-73
2022/02/27 11:11:41;;;;;;;9.88;4.43;;;;;;;;;;4974315;28;20054;-70
2022/02/27 11:14:08;;;;;;;8.27;4.30;;;;;;;;;;4976408;28;20546;-71
2022/02/27 11:16:34;;;;;;;12.48;4.85;;;;;;;;;;4985276;28;20627;-71
2022/02/27 11:19:00;;;;;;;9.82;4.50;;;;;;;;;;4983043;28;20710;-70
2022/02/27 11:21:27;;;;;;;12.70;4.95;;;;;;;;;;4976137;28;20054;-72
2022/02/27 11:23:53;;;;;;;11.88;4.65;;;;;;;;;;4975467;28;20046;-71
2022/02/27 11:26:20;;;;;;;12.32;4.18;;;;;;;;;;4970939;28;20456;-72
2022/02/27 11:28:46;;;;;;;10.18;3.90;;;;;;;;;;4980974;28;20050;-70
2022/02/27 11:31:15;;;;;;;11.63;4.22;;;;;;;;;;4981181;28;20073;-71
2022/02/27 11:33:42;;;;;;;12.52;4.05;;;;;;;;;;4977133;28;20237;-71
2022/02/27 11:36:21;;;;;;;9.07;4.57;;;;;;;;;;4982412;28;20049;-71
2022/02/27 11:39:01;;;;;;;7.13;4.43;;;;;;;;;;4967169;28;20089;-71
2022/02/27 11:41:43;;;;;;;13.85;4.72;;;;;;;;;;4974421;28;20654;-72
2022/02/27 11:44:13;;;;;;;10.80;4.43;;;;;;;;;;4993030;28;20046;-72
2022/02/27 11:46:41;;;;;;;8.63;4.05;;;;;;;;;;4981000;28;20047;-72
2022/02/27 11:49:09;;;;;;;10.63;4.65;;;;;;;;;;4976154;28;20053;-71
2022/02/27 11:51:35;;;;;;;10.98;4.43;;;;;;;;;;4978869;28;20095;-72
2022/02/27 11:54:08;;;;;;;8.27;3.60;;;;;;;;;;4980455;28;20394;-71
2022/02/27 11:56:36;;;;;;;12.82;4.88;;;;;;;;;;4976248;28;20057;-72
2022/02/27 11:59:02;;;;;;;10.93;4.28;;;;;;;;;;4980903;28;20053;-72
2022/02/27 12:01:34;;;;;;;7.70;3.92;;;;;;;;;;4979961;28;20050;-71
2022/02/27 12:04:19;;;;;;;10.10;4.20;;;;;;;;;;4980725;28;20046;-72
2022/02/27 12:07:02;;;;;;;11.48;4.32;;;;;;;;;;4971883;28;20802;-71
2022/02/27 12:09:47;;;;;;;10.40;4.05;;;;;;;;;;4981137;28;20764;-72
2022/02/27 12:12:34;;;;;;;10.25;3.22;;;;;;;;;;4973199;28;20050;-72
2022/02/27 12:15:20;;;;;;;9.38;4.07;;;;;;;;;;4982154;28;20046;-72
2022/02/27 12:17:53;;;;;;;10.52;3.63;;;;;;;;;;4969334;28;20042;-71
2022/02/27 12:20:44;;;;;;;7.97;3.50;;;;;;;;;;4978501;28;20835;-72
2022/02/27 12:23:12;;;;;;;9.98;3.97;;;;;;;;;;4980379;28;20456;-72
2022/02/27 12:25:40;;;;;;;8.85;4.28;;;;;;;;;;4965409;28;20042;-72
2022/02/27 12:28:06;;;;;;;7.60;3.58;;;;;;;;;;4982418;28;20046;-72
2022/02/27 12:30:35;;;;;;;;;;;;;;;;;;4973512;28;20060;-69
2022/02/27 12:33:08;;;;;;;10.95;3.88;;;;;;;;;;4974866;28;20332;-72
2022/02/27 12:35:35;;;;;;;9.07;3.33;;;;;;;;;;4968560;28;21548;-71
2022/02/27 12:38:05;;;;;;;8.45;3.53;;;;;;;;;;4979233;28;20061;-72
2022/02/27 12:40:33;;;;;;;8.95;3.40;;;;;;;;;;4975382;28;20088;-72
2022/02/27 12:43:04;;;;;;;11.07;3.47;;;;;;;;;;4977068;28;20865;-72
2022/02/27 12:45:31;;;;;;;8.68;3.17;;;;;;;;;;4969714;28;20046;-72
2022/02/27 12:48:14;;;;;;;6.93;3.40;;;;;;;;;;4956763;28;20261;-72
2022/02/27 12:50:47;;;;;;;5.90;2.92;;;;;;;;;;4967459;28;20057;-72
2022/02/27 12:53:14;;;;;;;8.95;2.92;;;;;;;;;;4961717;28;20046;-72
2022/02/27 12:55:40;;;;;;;9.93;3.17;;;;;;;;;;4967502;28;20077;-72
2022/02/27 12:58:08;;;;;;;8.82;3.30;;;;;;;;;;4965761;28;20046;-72
2022/02/27 13:00:39;;;;;;;9.25;2.83;;;;;;;;;;4964614;28;20082;-72
2022/02/27 13:03:13;;;;;;;7.38;2.90;;;;;;;;;;4965808;28;20042;-72
2022/02/27 13:05:41;;;;;;;7.82;3.15;;;;;;;;;;4958640;28;20050;-71
2022/02/27 13:08:09;;;;;;;6.68;3.33;;;;;;;;;;4970802;28;20039;-71
2022/02/27 13:10:36;;;;;;;8.32;3.13;;;;;;;;;;4974740;28;20065;-71
2022/02/27 13:13:09;;;;;;;7.95;3.03;;;;;;;;;;4969938;28;20053;-71
2022/02/27 13:15:35;;;;;;;7.38;2.75;;;;;;;;;;4960853;28;20525;-72
2022/02/27 13:18:02;;;;;;;6.53;2.75;;;;;;;;;;4968724;28;20047;-71
2022/02/27 13:20:29;;;;;;;7.28;2.55;;;;;;;;;;4975869;28;20491;-71
2022/02/27 13:22:57;;;;;;;6.93;2.40;;;;;;;;;;4970381;28;20635;-71
2022/02/27 13:25:24;;;;;;;6.50;2.25;;;;;;;;;;4969737;28;20081;-71
2022/02/27 13:27:51;;;;;;;5.03;2.10;;;;;;;;;;4964780;28;20242;-71
2022/02/27 13:30:19;;;;;;;5.78;2.10;;;;;;;;;;4973385;28;20058;-71
2022/02/27 13:32:46;;;;;;;5.18;1.95;;;;;;;;;;4966799;28;20046;-72
2022/02/27 13:35:18;;;;;;;5.68;2.05;;;;;;;;;;4969212;28;20502;-71
2022/02/27 13:37:50;;;;;;;5.55;2.28;;;;;;;;;;4975678;28;20563;-72
2022/02/27 13:40:18;;;;;;;5.43;1.98;;;;;;;;;;4964636;28;20053;-72
2022/02/27 13:42:44;;;;;;;4.80;2.08;;;;;;;;;;4968749;28;20050;-72
2022/02/27 13:45:24;;;;;;;3.45;2.03;;;;;;;;;;4953238;28;20057;-71
2022/02/27 13:47:53;;;;;;;6.10;2.60;;;;;;;;;;4970781;28;20499;-71
2022/02/27 13:50:20;;;;;;;5.20;2.25;;;;;;;;;;4960367;28;20066;-71
2022/02/27 13:53:01;;;;;;;6.32;2.13;;;;;;;;;;4973530;28;20051;-71
2022/02/27 13:55:29;;;;;;;8.27;2.10;;;;;;;;;;4969859;28;20492;-72
2022/02/27 13:58:02;;;;;;;6.07;2.00;;;;;;;;;;4962802;28;20050;-71
2022/02/27 14:00:29;;;;;;;5.93;2.40;;;;;;;;;;4974041;28;20295;-72
2022/02/27 14:03:02;;;;;;;4.93;2.20;;;;;;;;;;4972308;28;20058;-72
2022/02/27 14:05:29;;;;;;;6.45;2.17;;;;;;;;;;4973848;28;20050;-72
2022/02/27 14:07:55;;;;;;;5.10;2.20;;;;;;;;;;4958935;28;20080;-72
2022/02/27 14:10:26;;;;;;;6.82;2.10;;;;;;;;;;4967005;28;20051;-72
2022/02/27 14:13:12;;;;;;;4.88;2.08;;;;;;;;;;4971245;28;20049;-71
2022/02/27 14:15:40;;;;;;;4.38;1.85;;;;;;;;;;4965578;28;20051;-71
2022/02/27 14:18:23;;;;;;;3.88;1.70;;;;;;;;;;4971148;28;20058;-71
2022/02/27 14:20:52;;;;;;;3.88;1.77;;;;;;;;;;4975722;28;20432;-71
2022/02/27 14:23:24;;;;;;;5.57;1.95;;;;;;;;;;4968747;28;20046;-71
2022/02/27 14:25:51;;;;;;;4.68;1.80;;;;;;;;;;4951524;28;20085;-71
2022/02/27 14:28:18;;;;;;;4.50;1.70;;;;;;;;;;4973519;28;20068;-71
2022/02/27 14:30:44;;;;;;;3.05;1.67;;;;;;;;;;4968917;28;20055;-71
2022/02/27 14:33:16;;;;;;;4.88;1.83;;;;;;;;;;4966971;28;20042;-71
2022/02/27 14:35:43;;;;;;;4.30;1.90;;;;;;;;;;4967223;28;20050;-71